Terminal Aerodrome Forecast
Issued by NWS Burlington, VT

Home | Current Version | Previous Version | Text Only | Print | Product List | Glossary On
Versions: 1 2 3 4 5 6 7 8 9 10 11 12 13 14 15 16 17 18 19 20
000
FTUS41 KBTV 260622 AAA
TAFBTV
TAF AMD
KBTV 260622Z 2606/2706 VRB03KT P6SM SCT020 OVC040
      TEMPO 2606/2610 3SM BR OVC020
     FM261000 VRB03KT P6SM VCSH OVC015
      TEMPO 2610/2614 3SM -RA BR OVC008
     FM261400 25012KT P6SM -RA OVC020
     FM270000 22005KT P6SM BKN040=

USA.gov is the U.S. government's official web portal to all federal, state and local government web resources and services.